sensor_id;sensor_type;location;lat;lon;timestamp;P1;durP1;ratioP1;P2;durP2;ratioP2
11222;SDS011;5668;52.012;8.724;2023-11-21T00:02:27;18.83;;;14.40;;
11222;SDS011;5668;52.012;8.724;2023-11-21T00:04:54;20.83;;;15.10;;
11222;SDS011;5668;52.012;8.724;2023-11-21T00:07:21;19.97;;;16.03;;
11222;SDS011;5668;52.012;8.724;2023-11-21T00:09:49;22.80;;;16.83;;
11222;SDS011;5668;52.012;8.724;2023-11-21T00:12:16;21.13;;;16.17;;
11222;SDS011;5668;52.012;8.724;2023-11-21T00:14:43;21.37;;;15.00;;
11222;SDS011;5668;52.012;8.724;2023-11-21T00:17:10;21.70;;;16.10;;
11222;SDS011;5668;52.012;8.724;2023-11-21T00:19:39;21.13;;;15.80;;
11222;SDS011;5668;52.012;8.724;2023-11-21T00:22:07;21.73;;;15.90;;
11222;SDS011;5668;52.012;8.724;2023-11-21T00:24:35;20.63;;;15.70;;
11222;SDS011;5668;52.012;8.724;2023-11-21T00:27:02;17.27;;;14.37;;
11222;SDS011;5668;52.012;8.724;2023-11-21T00:29:31;19.57;;;14.77;;
11222;SDS011;5668;52.012;8.724;2023-11-21T00:31:58;17.93;;;13.90;;
11222;SDS011;5668;52.012;8.724;2023-11-21T00:34:25;17.63;;;13.73;;
11222;SDS011;5668;52.012;8.724;2023-11-21T00:36:54;21.77;;;13.80;;
11222;SDS011;5668;52.012;8.724;2023-11-21T00:39:21;18.20;;;13.23;;
11222;SDS011;5668;52.012;8.724;2023-11-21T00:41:49;19.00;;;13.33;;
11222;SDS011;5668;52.012;8.724;2023-11-21T00:44:17;23.30;;;14.03;;
11222;SDS011;5668;52.012;8.724;2023-11-21T00:46:44;18.00;;;12.90;;
11222;SDS011;5668;52.012;8.724;2023-11-21T00:49:12;15.87;;;13.40;;
11222;SDS011;5668;52.012;8.724;2023-11-21T00:51:39;18.53;;;12.67;;
11222;SDS011;5668;52.012;8.724;2023-11-21T00:54:08;20.27;;;13.13;;
11222;SDS011;5668;52.012;8.724;2023-11-21T00:56:36;16.33;;;11.73;;
11222;SDS011;5668;52.012;8.724;2023-11-21T00:59:03;19.87;;;12.20;;
11222;SDS011;5668;52.012;8.724;2023-11-21T01:01:30;16.47;;;12.50;;
11222;SDS011;5668;52.012;8.724;2023-11-21T01:03:57;16.50;;;11.77;;
11222;SDS011;5668;52.012;8.724;2023-11-21T01:06:25;16.50;;;11.80;;
11222;SDS011;5668;52.012;8.724;2023-11-21T01:08:52;18.97;;;12.10;;
11222;SDS011;5668;52.012;8.724;2023-11-21T01:11:21;16.63;;;11.93;;
11222;SDS011;5668;52.012;8.724;2023-11-21T01:13:48;16.93;;;11.93;;
11222;SDS011;5668;52.012;8.724;2023-11-21T01:16:15;17.23;;;11.53;;
11222;SDS011;5668;52.012;8.724;2023-11-21T01:18:43;16.23;;;12.40;;
11222;SDS011;5668;52.012;8.724;2023-11-21T01:21:10;16.63;;;12.00;;
11222;SDS011;5668;52.012;8.724;2023-11-21T01:23:37;15.73;;;11.73;;
11222;SDS011;5668;52.012;8.724;2023-11-21T01:26:05;16.40;;;12.30;;
11222;SDS011;5668;52.012;8.724;2023-11-21T01:28:34;17.77;;;12.20;;
11222;SDS011;5668;52.012;8.724;2023-11-21T01:31:02;16.10;;;11.80;;
11222;SDS011;5668;52.012;8.724;2023-11-21T01:33:29;16.87;;;11.80;;
11222;SDS011;5668;52.012;8.724;2023-11-21T01:35:57;16.43;;;11.83;;
11222;SDS011;5668;52.012;8.724;2023-11-21T01:38:25;16.37;;;12.17;;
11222;SDS011;5668;52.012;8.724;2023-11-21T01:40:52;16.40;;;12.57;;
11222;SDS011;5668;52.012;8.724;2023-11-21T01:43:19;16.10;;;12.13;;
11222;SDS011;5668;52.012;8.724;2023-11-21T01:45:48;17.27;;;12.47;;
11222;SDS011;5668;52.012;8.724;2023-11-21T01:48:16;18.27;;;12.90;;
11222;SDS011;5668;52.012;8.724;2023-11-21T01:50:43;17.23;;;13.03;;
11222;SDS011;5668;52.012;8.724;2023-11-21T01:53:11;20.33;;;13.60;;
11222;SDS011;5668;52.012;8.724;2023-11-21T01:55:40;16.73;;;13.00;;
11222;SDS011;5668;52.012;8.724;2023-11-21T01:58:08;17.83;;;12.67;;
11222;SDS011;5668;52.012;8.724;2023-11-21T02:00:37;15.70;;;12.47;;
11222;SDS011;5668;52.012;8.724;2023-11-21T02:03:06;18.27;;;13.97;;
11222;SDS011;5668;52.012;8.724;2023-11-21T02:05:35;24.43;;;14.10;;
11222;SDS011;5668;52.012;8.724;2023-11-21T02:08:02;18.60;;;13.63;;
11222;SDS011;5668;52.012;8.724;2023-11-21T02:10:30;19.10;;;14.13;;
11222;SDS011;5668;52.012;8.724;2023-11-21T02:12:58;18.30;;;13.40;;
11222;SDS011;5668;52.012;8.724;2023-11-21T02:15:27;19.37;;;13.50;;
11222;SDS011;5668;52.012;8.724;2023-11-21T02:17:55;20.37;;;14.17;;
11222;SDS011;5668;52.012;8.724;2023-11-21T02:20:24;18.03;;;13.00;;
11222;SDS011;5668;52.012;8.724;2023-11-21T02:22:55;20.20;;;13.03;;
11222;SDS011;5668;52.012;8.724;2023-11-21T02:25:24;16.30;;;13.13;;
11222;SDS011;5668;52.012;8.724;2023-11-21T02:27:53;20.27;;;13.63;;
11222;SDS011;5668;52.012;8.724;2023-11-21T02:30:20;18.03;;;13.30;;
11222;SDS011;5668;52.012;8.724;2023-11-21T02:32:47;19.40;;;14.10;;
11222;SDS011;5668;52.012;8.724;2023-11-21T02:35:17;16.63;;;13.57;;
11222;SDS011;5668;52.012;8.724;2023-11-21T02:37:46;15.90;;;13.73;;
11222;SDS011;5668;52.012;8.724;2023-11-21T02:40:16;18.00;;;14.20;;
11222;SDS011;5668;52.012;8.724;2023-11-21T02:42:45;22.10;;;14.60;;
11222;SDS011;5668;52.012;8.724;2023-11-21T02:45:13;17.07;;;13.67;;
11222;SDS011;5668;52.012;8.724;2023-11-21T02:47:41;18.83;;;13.93;;
11222;SDS011;5668;52.012;8.724;2023-11-21T02:50:09;17.80;;;13.43;;
11222;SDS011;5668;52.012;8.724;2023-11-21T02:52:36;16.70;;;12.63;;
11222;SDS011;5668;52.012;8.724;2023-11-21T02:55:05;18.20;;;13.40;;
11222;SDS011;5668;52.012;8.724;2023-11-21T02:57:34;19.13;;;13.13;;
11222;SDS011;5668;52.012;8.724;2023-11-21T03:05:16;17.13;;;12.73;;
11222;SDS011;5668;52.012;8.724;2023-11-21T03:07:43;18.23;;;13.10;;
11222;SDS011;5668;52.012;8.724;2023-11-21T03:10:11;15.07;;;12.60;;
11222;SDS011;5668;52.012;8.724;2023-11-21T03:12:40;19.20;;;13.03;;
11222;SDS011;5668;52.012;8.724;2023-11-21T03:15:09;17.07;;;12.73;;
11222;SDS011;5668;52.012;8.724;2023-11-21T03:17:37;17.50;;;13.50;;
11222;SDS011;5668;52.012;8.724;2023-11-21T03:20:04;19.00;;;12.80;;
11222;SDS011;5668;52.012;8.724;2023-11-21T03:22:35;17.20;;;12.57;;
11222;SDS011;5668;52.012;8.724;2023-11-21T03:25:03;15.63;;;12.47;;
11222;SDS011;5668;52.012;8.724;2023-11-21T03:27:31;17.10;;;12.33;;
11222;SDS011;5668;52.012;8.724;2023-11-21T03:30:00;18.47;;;12.30;;
11222;SDS011;5668;52.012;8.724;2023-11-21T03:32:28;17.87;;;11.83;;
11222;SDS011;5668;52.012;8.724;2023-11-21T03:34:58;15.60;;;11.73;;
11222;SDS011;5668;52.012;8.724;2023-11-21T03:37:26;17.57;;;12.00;;
11222;SDS011;5668;52.012;8.724;2023-11-21T03:39:54;17.77;;;12.73;;
11222;SDS011;5668;52.012;8.724;2023-11-21T03:42:21;17.47;;;12.37;;
11222;SDS011;5668;52.012;8.724;2023-11-21T03:44:48;16.73;;;11.90;;
11222;SDS011;5668;52.012;8.724;2023-11-21T03:47:17;20.07;;;12.97;;
11222;SDS011;5668;52.012;8.724;2023-11-21T03:49:45;17.90;;;12.10;;
11222;SDS011;5668;52.012;8.724;2023-11-21T03:52:12;17.17;;;12.53;;
11222;SDS011;5668;52.012;8.724;2023-11-21T03:54:40;19.90;;;12.57;;
11222;SDS011;5668;52.012;8.724;2023-11-21T03:57:08;16.47;;;12.63;;
11222;SDS011;5668;52.012;8.724;2023-11-21T03:59:36;17.20;;;12.50;;
11222;SDS011;5668;52.012;8.724;2023-11-21T04:02:05;21.60;;;13.93;;
11222;SDS011;5668;52.012;8.724;2023-11-21T04:04:34;19.40;;;12.50;;
11222;SDS011;5668;52.012;8.724;2023-11-21T04:07:02;18.57;;;12.73;;
11222;SDS011;5668;52.012;8.724;2023-11-21T04:09:30;18.77;;;13.63;;
11222;SDS011;5668;52.012;8.724;2023-11-21T04:11:59;17.70;;;12.47;;
11222;SDS011;5668;52.012;8.724;2023-11-21T04:14:26;21.50;;;12.60;;
11222;SDS011;5668;52.012;8.724;2023-11-21T04:16:54;18.20;;;11.77;;
11222;SDS011;5668;52.012;8.724;2023-11-21T04:19:21;18.37;;;11.67;;
11222;SDS011;5668;52.012;8.724;2023-11-21T04:21:50;15.90;;;11.27;;
11222;SDS011;5668;52.012;8.724;2023-11-21T04:24:17;17.27;;;11.20;;
11222;SDS011;5668;52.012;8.724;2023-11-21T04:26:44;18.07;;;11.33;;
11222;SDS011;5668;52.012;8.724;2023-11-21T04:29:12;20.80;;;11.17;;
11222;SDS011;5668;52.012;8.724;2023-11-21T04:31:39;15.27;;;10.90;;
11222;SDS011;5668;52.012;8.724;2023-11-21T04:34:06;16.10;;;11.50;;
11222;SDS011;5668;52.012;8.724;2023-11-21T04:36:34;16.67;;;11.50;;
11222;SDS011;5668;52.012;8.724;2023-11-21T04:39:03;21.00;;;11.53;;
11222;SDS011;5668;52.012;8.724;2023-11-21T04:41:31;18.40;;;11.70;;
11222;SDS011;5668;52.012;8.724;2023-11-21T04:43:59;15.77;;;10.60;;
11222;SDS011;5668;52.012;8.724;2023-11-21T04:46:26;18.33;;;11.43;;
11222;SDS011;5668;52.012;8.724;2023-11-21T04:48:54;18.63;;;11.87;;
11222;SDS011;5668;52.012;8.724;2023-11-21T04:51:21;17.33;;;11.97;;
11222;SDS011;5668;52.012;8.724;2023-11-21T04:53:48;14.13;;;10.57;;
11222;SDS011;5668;52.012;8.724;2023-11-21T04:56:17;16.37;;;11.03;;
11222;SDS011;5668;52.012;8.724;2023-11-21T04:58:45;18.87;;;10.50;;
11222;SDS011;5668;52.012;8.724;2023-11-21T05:01:12;16.43;;;11.57;;
11222;SDS011;5668;52.012;8.724;2023-11-21T05:03:40;15.50;;;10.13;;
11222;SDS011;5668;52.012;8.724;2023-11-21T05:06:09;15.53;;;11.43;;
11222;SDS011;5668;52.012;8.724;2023-11-21T05:08:36;14.90;;;10.83;;
11222;SDS011;5668;52.012;8.724;2023-11-21T05:11:04;16.93;;;11.23;;
11222;SDS011;5668;52.012;8.724;2023-11-21T05:13:34;15.43;;;10.87;;
11222;SDS011;5668;52.012;8.724;2023-11-21T05:16:02;15.70;;;11.10;;
11222;SDS011;5668;52.012;8.724;2023-11-21T05:18:32;16.57;;;11.20;;
11222;SDS011;5668;52.012;8.724;2023-11-21T05:20:59;17.43;;;11.53;;
11222;SDS011;5668;52.012;8.724;2023-11-21T05:23:28;18.90;;;11.80;;
11222;SDS011;5668;52.012;8.724;2023-11-21T05:25:55;18.67;;;12.00;;
11222;SDS011;5668;52.012;8.724;2023-11-21T05:28:23;21.73;;;12.13;;
11222;SDS011;5668;52.012;8.724;2023-11-21T05:30:51;17.60;;;11.80;;
11222;SDS011;5668;52.012;8.724;2023-11-21T05:33:19;16.07;;;11.77;;
11222;SDS011;5668;52.012;8.724;2023-11-21T05:35:47;20.67;;;12.50;;
11222;SDS011;5668;52.012;8.724;2023-11-21T05:38:14;16.20;;;12.13;;
11222;SDS011;5668;52.012;8.724;2023-11-21T05:40:41;19.97;;;13.80;;
11222;SDS011;5668;52.012;8.724;2023-11-21T05:43:09;20.27;;;13.37;;
11222;SDS011;5668;52.012;8.724;2023-11-21T05:45:37;19.73;;;12.83;;
11222;SDS011;5668;52.012;8.724;2023-11-21T05:48:05;17.67;;;12.23;;
11222;SDS011;5668;52.012;8.724;2023-11-21T05:50:33;19.60;;;13.13;;
11222;SDS011;5668;52.012;8.724;2023-11-21T05:53:00;18.43;;;13.07;;
11222;SDS011;5668;52.012;8.724;2023-11-21T05:55:27;18.47;;;13.40;;
11222;SDS011;5668;52.012;8.724;2023-11-21T05:57:55;17.93;;;12.77;;
11222;SDS011;5668;52.012;8.724;2023-11-21T06:00:22;19.40;;;13.50;;
11222;SDS011;5668;52.012;8.724;2023-11-21T06:02:50;21.20;;;13.83;;
11222;SDS011;5668;52.012;8.724;2023-11-21T06:05:21;19.93;;;14.50;;
11222;SDS011;5668;52.012;8.724;2023-11-21T06:07:49;21.00;;;14.57;;
11222;SDS011;5668;52.012;8.724;2023-11-21T06:10:19;21.83;;;14.93;;
11222;SDS011;5668;52.012;8.724;2023-11-21T06:12:48;22.43;;;15.67;;
11222;SDS011;5668;52.012;8.724;2023-11-21T06:15:16;21.47;;;16.43;;
11222;SDS011;5668;52.012;8.724;2023-11-21T06:17:44;21.30;;;16.23;;
11222;SDS011;5668;52.012;8.724;2023-11-21T06:20:14;23.83;;;15.80;;
11222;SDS011;5668;52.012;8.724;2023-11-21T06:22:46;23.80;;;17.50;;
11222;SDS011;5668;52.012;8.724;2023-11-21T06:25:15;26.77;;;17.13;;
11222;SDS011;5668;52.012;8.724;2023-11-21T06:27:43;22.10;;;16.00;;
11222;SDS011;5668;52.012;8.724;2023-11-21T06:30:11;23.00;;;17.27;;
11222;SDS011;5668;52.012;8.724;2023-11-21T06:32:40;22.80;;;17.50;;
11222;SDS011;5668;52.012;8.724;2023-11-21T06:35:10;21.73;;;16.93;;
11222;SDS011;5668;52.012;8.724;2023-11-21T06:37:38;22.87;;;17.03;;
11222;SDS011;5668;52.012;8.724;2023-11-21T06:40:08;24.80;;;17.10;;
11222;SDS011;5668;52.012;8.724;2023-11-21T06:42:39;22.47;;;17.50;;
11222;SDS011;5668;52.012;8.724;2023-11-21T06:45:06;21.47;;;16.27;;
11222;SDS011;5668;52.012;8.724;2023-11-21T06:47:35;23.47;;;16.83;;
11222;SDS011;5668;52.012;8.724;2023-11-21T06:50:05;24.13;;;17.27;;
11222;SDS011;5668;52.012;8.724;2023-11-21T06:52:34;21.13;;;16.20;;
11222;SDS011;5668;52.012;8.724;2023-11-21T06:55:01;22.17;;;16.73;;
11222;SDS011;5668;52.012;8.724;2023-11-21T06:57:31;25.20;;;17.03;;
11222;SDS011;5668;52.012;8.724;2023-11-21T06:59:58;24.67;;;16.00;;
11222;SDS011;5668;52.012;8.724;2023-11-21T07:02:26;23.23;;;16.70;;
11222;SDS011;5668;52.012;8.724;2023-11-21T07:04:54;23.13;;;16.13;;
11222;SDS011;5668;52.012;8.724;2023-11-21T07:07:21;22.60;;;16.10;;
11222;SDS011;5668;52.012;8.724;2023-11-21T07:09:48;20.83;;;15.90;;
11222;SDS011;5668;52.012;8.724;2023-11-21T07:12:17;23.17;;;16.80;;
11222;SDS011;5668;52.012;8.724;2023-11-21T07:14:45;19.93;;;15.90;;
11222;SDS011;5668;52.012;8.724;2023-11-21T07:17:13;22.17;;;15.47;;
11222;SDS011;5668;52.012;8.724;2023-11-21T07:19:42;20.27;;;15.47;;
11222;SDS011;5668;52.012;8.724;2023-11-21T07:22:10;20.87;;;16.43;;
11222;SDS011;5668;52.012;8.724;2023-11-21T07:24:39;20.07;;;15.30;;
11222;SDS011;5668;52.012;8.724;2023-11-21T07:27:06;19.70;;;14.80;;
11222;SDS011;5668;52.012;8.724;2023-11-21T07:29:33;21.07;;;14.90;;
11222;SDS011;5668;52.012;8.724;2023-11-21T07:32:02;24.87;;;16.27;;
11222;SDS011;5668;52.012;8.724;2023-11-21T07:34:30;24.20;;;15.43;;
11222;SDS011;5668;52.012;8.724;2023-11-21T07:36:58;23.00;;;15.23;;
11222;SDS011;5668;52.012;8.724;2023-11-21T07:39:25;23.27;;;16.03;;
11222;SDS011;5668;52.012;8.724;2023-11-21T07:41:52;22.30;;;15.30;;
11222;SDS011;5668;52.012;8.724;2023-11-21T07:44:20;22.57;;;15.90;;
11222;SDS011;5668;52.012;8.724;2023-11-21T07:46:47;22.90;;;15.67;;
11222;SDS011;5668;52.012;8.724;2023-11-21T07:49:16;21.93;;;15.33;;
11222;SDS011;5668;52.012;8.724;2023-11-21T07:51:45;20.80;;;16.00;;
11222;SDS011;5668;52.012;8.724;2023-11-21T07:54:12;27.00;;;16.00;;
11222;SDS011;5668;52.012;8.724;2023-11-21T07:56:42;23.30;;;17.27;;
11222;SDS011;5668;52.012;8.724;2023-11-21T07:59:10;24.80;;;17.13;;
11222;SDS011;5668;52.012;8.724;2023-11-21T08:01:39;22.53;;;16.00;;
11222;SDS011;5668;52.012;8.724;2023-11-21T08:04:08;23.80;;;16.87;;
11222;SDS011;5668;52.012;8.724;2023-11-21T08:06:36;25.57;;;16.20;;
11222;SDS011;5668;52.012;8.724;2023-11-21T08:09:03;22.80;;;15.10;;
11222;SDS011;5668;52.012;8.724;2023-11-21T08:11:33;22.60;;;15.57;;
11222;SDS011;5668;52.012;8.724;2023-11-21T08:14:04;21.17;;;15.00;;
11222;SDS011;5668;52.012;8.724;2023-11-21T08:16:31;19.97;;;14.73;;
11222;SDS011;5668;52.012;8.724;2023-11-21T08:18:58;21.90;;;14.07;;
11222;SDS011;5668;52.012;8.724;2023-11-21T08:21:26;20.80;;;14.03;;
11222;SDS011;5668;52.012;8.724;2023-11-21T08:23:55;21.77;;;14.67;;
11222;SDS011;5668;52.012;8.724;2023-11-21T08:26:22;24.13;;;15.40;;
11222;SDS011;5668;52.012;8.724;2023-11-21T08:28:50;23.43;;;14.40;;
11222;SDS011;5668;52.012;8.724;2023-11-21T08:31:23;25.47;;;14.70;;
11222;SDS011;5668;52.012;8.724;2023-11-21T08:33:51;21.57;;;15.07;;
11222;SDS011;5668;52.012;8.724;2023-11-21T08:36:19;20.70;;;14.70;;
11222;SDS011;5668;52.012;8.724;2023-11-21T08:38:48;25.73;;;15.47;;
11222;SDS011;5668;52.012;8.724;2023-11-21T08:41:18;24.43;;;14.20;;
11222;SDS011;5668;52.012;8.724;2023-11-21T08:43:47;24.13;;;14.77;;
11222;SDS011;5668;52.012;8.724;2023-11-21T08:46:15;25.80;;;14.97;;
11222;SDS011;5668;52.012;8.724;2023-11-21T08:48:43;24.23;;;13.47;;
11222;SDS011;5668;52.012;8.724;2023-11-21T08:51:11;22.63;;;13.73;;
11222;SDS011;5668;52.012;8.724;2023-11-21T08:53:39;21.83;;;13.93;;
11222;SDS011;5668;52.012;8.724;2023-11-21T08:56:06;20.30;;;13.27;;
11222;SDS011;5668;52.012;8.724;2023-11-21T08:58:36;19.67;;;13.03;;
11222;SDS011;5668;52.012;8.724;2023-11-21T09:01:04;19.47;;;12.97;;
11222;SDS011;5668;52.012;8.724;2023-11-21T09:03:32;16.63;;;11.80;;
11222;SDS011;5668;52.012;8.724;2023-11-21T09:05:59;15.10;;;11.03;;
11222;SDS011;5668;52.012;8.724;2023-11-21T09:08:27;14.93;;;10.63;;
11222;SDS011;5668;52.012;8.724;2023-11-21T09:10:54;14.93;;;9.27;;
11222;SDS011;5668;52.012;8.724;2023-11-21T09:13:22;13.60;;;9.20;;
11222;SDS011;5668;52.012;8.724;2023-11-21T09:15:51;12.40;;;8.90;;
11222;SDS011;5668;52.012;8.724;2023-11-21T09:18:19;12.87;;;8.87;;
11222;SDS011;5668;52.012;8.724;2023-11-21T09:20:46;10.83;;;8.63;;
11222;SDS011;5668;52.012;8.724;2023-11-21T09:23:13;9.63;;;7.10;;
11222;SDS011;5668;52.012;8.724;2023-11-21T09:25:40;9.37;;;7.27;;
11222;SDS011;5668;52.012;8.724;2023-11-21T09:28:11;8.57;;;7.17;;
11222;SDS011;5668;52.012;8.724;2023-11-21T09:30:39;8.27;;;7.10;;
11222;SDS011;5668;52.012;8.724;2023-11-21T09:33:08;9.53;;;6.70;;
11222;SDS011;5668;52.012;8.724;2023-11-21T09:35:36;8.53;;;7.07;;
11222;SDS011;5668;52.012;8.724;2023-11-21T09:38:04;7.83;;;6.60;;
11222;SDS011;5668;52.012;8.724;2023-11-21T09:40:35;7.07;;;6.07;;
11222;SDS011;5668;52.012;8.724;2023-11-21T09:43:04;8.20;;;5.67;;
11222;SDS011;5668;52.012;8.724;2023-11-21T09:45:34;6.47;;;5.77;;
11222;SDS011;5668;52.012;8.724;2023-11-21T09:48:04;8.60;;;7.10;;
11222;SDS011;5668;52.012;8.724;2023-11-21T09:50:34;9.63;;;7.10;;
11222;SDS011;5668;52.012;8.724;2023-11-21T09:53:06;8.77;;;7.03;;
11222;SDS011;5668;52.012;8.724;2023-11-21T09:55:39;8.60;;;6.77;;
11222;SDS011;5668;52.012;8.724;2023-11-21T09:58:09;7.27;;;6.13;;
11222;SDS011;5668;52.012;8.724;2023-11-21T10:00:39;7.80;;;5.90;;
11222;SDS011;5668;52.012;8.724;2023-11-21T10:03:08;7.03;;;6.17;;
11222;SDS011;5668;52.012;8.724;2023-11-21T10:05:36;7.43;;;6.20;;
11222;SDS011;5668;52.012;8.724;2023-11-21T10:08:07;6.10;;;5.50;;
11222;SDS011;5668;52.012;8.724;2023-11-21T10:10:36;8.17;;;6.60;;
11222;SDS011;5668;52.012;8.724;2023-11-21T10:13:06;8.33;;;6.97;;
11222;SDS011;5668;52.012;8.724;2023-11-21T10:15:37;6.60;;;5.73;;
11222;SDS011;5668;52.012;8.724;2023-11-21T10:18:09;6.23;;;5.47;;
11222;SDS011;5668;52.012;8.724;2023-11-21T10:20:38;6.47;;;5.77;;
11222;SDS011;5668;52.012;8.724;2023-11-21T10:23:05;7.83;;;6.20;;
11222;SDS011;5668;52.012;8.724;2023-11-21T10:25:36;7.10;;;6.40;;
11222;SDS011;5668;52.012;8.724;2023-11-21T10:28:04;5.93;;;5.37;;
11222;SDS011;5668;52.012;8.724;2023-11-21T10:30:32;6.23;;;5.63;;
11222;SDS011;5668;52.012;8.724;2023-11-21T10:33:02;6.53;;;5.93;;
11222;SDS011;5668;52.012;8.724;2023-11-21T10:35:43;6.60;;;5.90;;
11222;SDS011;5668;52.012;8.724;2023-11-21T10:38:15;6.73;;;6.13;;
11222;SDS011;5668;52.012;8.724;2023-11-21T10:40:44;7.00;;;6.30;;
11222;SDS011;5668;52.012;8.724;2023-11-21T10:43:13;6.83;;;6.10;;
11222;SDS011;5668;52.012;8.724;2023-11-21T10:45:41;6.33;;;5.73;;
11222;SDS011;5668;52.012;8.724;2023-11-21T10:48:09;5.87;;;5.37;;
11222;SDS011;5668;52.012;8.724;2023-11-21T10:50:42;5.20;;;4.70;;
11222;SDS011;5668;52.012;8.724;2023-11-21T10:53:10;5.27;;;4.77;;
11222;SDS011;5668;52.012;8.724;2023-11-21T10:55:38;4.90;;;4.40;;
11222;SDS011;5668;52.012;8.724;2023-11-21T10:58:06;5.20;;;4.70;;
11222;SDS011;5668;52.012;8.724;2023-11-21T11:00:36;5.23;;;4.80;;
11222;SDS011;5668;52.012;8.724;2023-11-21T11:03:05;5.40;;;4.90;;
11222;SDS011;5668;52.012;8.724;2023-11-21T11:05:38;5.50;;;5.00;;
11222;SDS011;5668;52.012;8.724;2023-11-21T11:08:12;6.07;;;5.50;;
11222;SDS011;5668;52.012;8.724;2023-11-21T11:10:44;7.00;;;6.27;;
11222;SDS011;5668;52.012;8.724;2023-11-21T11:13:11;6.03;;;5.53;;
11222;SDS011;5668;52.012;8.724;2023-11-21T11:15:40;6.67;;;6.07;;
11222;SDS011;5668;52.012;8.724;2023-11-21T11:18:08;6.70;;;5.90;;
11222;SDS011;5668;52.012;8.724;2023-11-21T11:20:38;6.43;;;5.83;;
11222;SDS011;5668;52.012;8.724;2023-11-21T11:23:13;6.60;;;6.00;;
11222;SDS011;5668;52.012;8.724;2023-11-21T11:25:58;6.17;;;5.57;;
11222;SDS011;5668;52.012;8.724;2023-11-21T11:28:42;6.47;;;5.87;;
11222;SDS011;5668;52.012;8.724;2023-11-21T11:31:14;7.47;;;6.57;;
11222;SDS011;5668;52.012;8.724;2023-11-21T11:33:57;8.90;;;8.10;;
11222;SDS011;5668;52.012;8.724;2023-11-21T11:36:34;9.37;;;8.40;;
11222;SDS011;5668;52.012;8.724;2023-11-21T11:41:57;8.00;;;7.17;;
11222;SDS011;5668;52.012;8.724;2023-11-21T11:44:46;8.60;;;7.53;;
11222;SDS011;5668;52.012;8.724;2023-11-21T11:47:19;8.67;;;7.77;;
11222;SDS011;5668;52.012;8.724;2023-11-21T11:49:55;8.40;;;7.60;;
11222;SDS011;5668;52.012;8.724;2023-11-21T11:52:31;8.43;;;7.53;;
11222;SDS011;5668;52.012;8.724;2023-11-21T11:55:01;9.27;;;7.40;;
11222;SDS011;5668;52.012;8.724;2023-11-21T11:57:30;10.63;;;7.83;;
11222;SDS011;5668;52.012;8.724;2023-11-21T12:00:11;9.20;;;8.23;;
11222;SDS011;5668;52.012;8.724;2023-11-21T12:02:44;10.10;;;8.90;;
11222;SDS011;5668;52.012;8.724;2023-11-21T12:05:13;10.17;;;8.70;;
11222;SDS011;5668;52.012;8.724;2023-11-21T12:07:43;9.50;;;8.40;;
11222;SDS011;5668;52.012;8.724;2023-11-21T12:10:21;11.10;;;8.47;;
11222;SDS011;5668;52.012;8.724;2023-11-21T12:12:50;9.00;;;8.10;;
11222;SDS011;5668;52.012;8.724;2023-11-21T12:15:18;9.97;;;8.60;;
11222;SDS011;5668;52.012;8.724;2023-11-21T12:17:46;9.00;;;8.10;;
11222;SDS011;5668;52.012;8.724;2023-11-21T12:20:16;10.13;;;8.60;;
11222;SDS011;5668;52.012;8.724;2023-11-21T12:22:47;10.23;;;8.50;;
11222;SDS011;5668;52.012;8.724;2023-11-21T12:25:15;8.57;;;7.67;;
11222;SDS011;5668;52.012;8.724;2023-11-21T12:27:45;7.27;;;6.57;;
11222;SDS011;5668;52.012;8.724;2023-11-21T12:30:14;7.73;;;6.80;;
11222;SDS011;5668;52.012;8.724;2023-11-21T12:32:44;7.67;;;6.83;;
11222;SDS011;5668;52.012;8.724;2023-11-21T12:35:14;7.80;;;6.57;;
11222;SDS011;5668;52.012;8.724;2023-11-21T12:37:44;6.93;;;6.23;;
11222;SDS011;5668;52.012;8.724;2023-11-21T12:40:13;8.03;;;6.57;;
11222;SDS011;5668;52.012;8.724;2023-11-21T12:42:42;9.00;;;6.90;;
11222;SDS011;5668;52.012;8.724;2023-11-21T12:45:19;9.80;;;7.47;;
11222;SDS011;5668;52.012;8.724;2023-11-21T12:47:50;8.53;;;7.23;;
11222;SDS011;5668;52.012;8.724;2023-11-21T12:50:21;7.97;;;6.80;;
11222;SDS011;5668;52.012;8.724;2023-11-21T12:52:52;8.70;;;7.10;;
11222;SDS011;5668;52.012;8.724;2023-11-21T12:55:19;8.63;;;7.03;;
11222;SDS011;5668;52.012;8.724;2023-11-21T12:57:49;8.03;;;6.77;;
11222;SDS011;5668;52.012;8.724;2023-11-21T13:00:19;8.63;;;6.87;;
11222;SDS011;5668;52.012;8.724;2023-11-21T13:02:55;7.67;;;6.73;;
11222;SDS011;5668;52.012;8.724;2023-11-21T13:05:24;7.67;;;6.53;;
11222;SDS011;5668;52.012;8.724;2023-11-21T13:07:53;7.47;;;5.90;;
11222;SDS011;5668;52.012;8.724;2023-11-21T13:10:22;6.67;;;5.60;;
11222;SDS011;5668;52.012;8.724;2023-11-21T13:12:53;6.00;;;5.37;;
11222;SDS011;5668;52.012;8.724;2023-11-21T13:15:24;6.53;;;5.30;;
11222;SDS011;5668;52.012;8.724;2023-11-21T13:17:52;5.80;;;5.30;;
11222;SDS011;5668;52.012;8.724;2023-11-21T13:20:21;6.77;;;5.60;;
11222;SDS011;5668;52.012;8.724;2023-11-21T13:22:49;5.93;;;5.00;;
11222;SDS011;5668;52.012;8.724;2023-11-21T13:25:21;8.53;;;5.30;;
11222;SDS011;5668;52.012;8.724;2023-11-21T13:27:48;5.30;;;4.73;;
11222;SDS011;5668;52.012;8.724;2023-11-21T13:30:17;5.90;;;4.90;;
11222;SDS011;5668;52.012;8.724;2023-11-21T13:32:48;5.67;;;4.70;;
11222;SDS011;5668;52.012;8.724;2023-11-21T13:35:16;4.83;;;4.43;;
11222;SDS011;5668;52.012;8.724;2023-11-21T13:37:48;5.30;;;4.70;;
11222;SDS011;5668;52.012;8.724;2023-11-21T13:40:21;5.30;;;4.67;;
11222;SDS011;5668;52.012;8.724;2023-11-21T13:42:52;5.37;;;4.87;;
11222;SDS011;5668;52.012;8.724;2023-11-21T13:45:21;23.57;;;17.80;;
11222;SDS011;5668;52.012;8.724;2023-11-21T13:47:50;11.67;;;8.27;;
11222;SDS011;5668;52.012;8.724;2023-11-21T13:50:22;5.80;;;5.20;;
11222;SDS011;5668;52.012;8.724;2023-11-21T13:52:54;6.17;;;4.70;;
11222;SDS011;5668;52.012;8.724;2023-11-21T13:55:21;5.73;;;4.40;;
11222;SDS011;5668;52.012;8.724;2023-11-21T13:57:50;5.10;;;4.60;;
11222;SDS011;5668;52.012;8.724;2023-11-21T14:00:18;5.77;;;4.97;;
11222;SDS011;5668;52.012;8.724;2023-11-21T14:03:00;7.00;;;5.10;;
11222;SDS011;5668;52.012;8.724;2023-11-21T14:05:33;5.57;;;4.93;;
11222;SDS011;5668;52.012;8.724;2023-11-21T14:08:00;5.80;;;5.20;;
11222;SDS011;5668;52.012;8.724;2023-11-21T14:10:29;7.70;;;6.43;;
11222;SDS011;5668;52.012;8.724;2023-11-21T14:13:05;6.10;;;5.50;;
11222;SDS011;5668;52.012;8.724;2023-11-21T14:15:32;7.27;;;6.33;;
11222;SDS011;5668;52.012;8.724;2023-11-21T14:18:04;7.67;;;6.27;;
11222;SDS011;5668;52.012;8.724;2023-11-21T14:20:35;7.90;;;6.47;;
11222;SDS011;5668;52.012;8.724;2023-11-21T14:23:03;7.00;;;6.30;;
11222;SDS011;5668;52.012;8.724;2023-11-21T14:25:31;7.00;;;6.40;;
11222;SDS011;5668;52.012;8.724;2023-11-21T14:27:58;8.40;;;6.47;;
11222;SDS011;5668;52.012;8.724;2023-11-21T14:30:28;6.80;;;6.10;;
11222;SDS011;5668;52.012;8.724;2023-11-21T14:32:58;7.13;;;6.20;;
11222;SDS011;5668;52.012;8.724;2023-11-21T14:35:27;6.37;;;5.77;;
11222;SDS011;5668;52.012;8.724;2023-11-21T14:37:57;6.87;;;6.17;;
11222;SDS011;5668;52.012;8.724;2023-11-21T14:40:25;5.77;;;5.20;;
11222;SDS011;5668;52.012;8.724;2023-11-21T14:42:58;6.17;;;5.57;;
11222;SDS011;5668;52.012;8.724;2023-11-21T14:45:26;6.37;;;5.77;;
11222;SDS011;5668;52.012;8.724;2023-11-21T14:47:54;6.37;;;5.77;;
11222;SDS011;5668;52.012;8.724;2023-11-21T14:50:33;6.00;;;5.30;;
11222;SDS011;5668;52.012;8.724;2023-11-21T14:53:34;5.97;;;5.33;;
11222;SDS011;5668;52.012;8.724;2023-11-21T14:56:08;7.03;;;6.33;;
11222;SDS011;5668;52.012;8.724;2023-11-21T14:58:43;6.23;;;5.63;;
11222;SDS011;5668;52.012;8.724;2023-11-21T15:01:09;6.30;;;5.70;;
11222;SDS011;5668;52.012;8.724;2023-11-21T15:03:36;6.00;;;5.50;;